createdAt,value
2022-08-25T00:00:14.232Z,6.18
2022-08-25T00:02:45.543Z,5.95
2022-08-25T00:05:26.303Z,5.85
2022-08-25T00:07:55.066Z,6.07
2022-08-25T00:10:22.136Z,6.07
2022-08-25T00:12:49.337Z,5.82
2022-08-25T00:15:16.580Z,6.13
2022-08-25T00:17:43.716Z,6.20
2022-08-25T00:20:11.110Z,6.68
2022-08-25T00:22:38.259Z,6.75
2022-08-25T00:25:05.808Z,7.10
2022-08-25T00:27:32.825Z,7.00
2022-08-25T00:30:00.546Z,6.50
2022-08-25T00:32:28.187Z,6.80
2022-08-25T00:34:55.377Z,7.63
2022-08-25T00:37:22.467Z,6.90
2022-08-25T00:39:49.735Z,7.25
2022-08-25T00:42:17.114Z,6.35
2022-08-25T00:44:44.338Z,7.40
2022-08-25T00:47:11.485Z,7.15
2022-08-25T00:49:46.186Z,7.15
2022-08-25T00:52:38.138Z,6.85
2022-08-25T00:55:11.766Z,6.72
2022-08-25T00:58:14.327Z,7.43
2022-08-25T01:00:45.115Z,7.25
2022-08-25T01:03:12.526Z,6.72
2022-08-25T01:05:41.789Z,7.63
2022-08-25T01:08:10.170Z,7.97
2022-08-25T01:10:41.506Z,7.80
2022-08-25T01:13:18.835Z,7.35
2022-08-25T01:15:48.419Z,6.85
2022-08-25T01:18:16.267Z,8.02
2022-08-25T01:20:43.726Z,6.65
2022-08-25T01:23:11.027Z,7.72
2022-08-25T01:26:00.445Z,7.75
2022-08-25T01:28:27.790Z,6.37
2022-08-25T01:30:55.152Z,7.18
2022-08-25T01:33:23.346Z,7.18
2022-08-25T01:35:50.592Z,7.07
2022-08-25T01:38:18.715Z,7.25
2022-08-25T01:40:45.873Z,7.68
2022-08-25T01:43:15.747Z,6.70
2022-08-25T01:45:47.770Z,7.53
2022-08-25T01:48:16.867Z,7.30
2022-08-25T01:50:44.432Z,7.40
2022-08-25T01:53:28.714Z,7.05
2022-08-25T01:56:02.752Z,7.60
2022-08-25T01:58:33.939Z,7.38
2022-08-25T02:01:04.140Z,8.05
2022-08-25T02:06:00.180Z,8.07
2022-08-25T02:08:27.468Z,7.63
2022-08-25T02:10:55.941Z,6.82
2022-08-25T02:13:26.938Z,7.90
2022-08-25T02:16:02.061Z,7.78
2022-08-25T02:18:29.588Z,7.85
2022-08-25T02:20:56.832Z,8.07
2022-08-25T02:23:24.015Z,9.07
2022-08-25T02:25:51.258Z,8.07
2022-08-25T02:28:18.536Z,8.27
2022-08-25T02:30:46.270Z,9.13
2022-08-25T02:33:13.387Z,9.02
2022-08-25T02:35:40.568Z,8.75
2022-08-25T02:38:07.968Z,9.80
2022-08-25T02:40:35.255Z,9.65
2022-08-25T02:43:02.490Z,10.38
2022-08-25T02:45:29.976Z,11.77
2022-08-25T02:47:57.291Z,10.30
2022-08-25T02:50:25.172Z,10.93
2022-08-25T02:52:52.856Z,11.40
2022-08-25T02:55:20.365Z,11.55
2022-08-25T02:57:48.485Z,12.00
2022-08-25T03:00:17.456Z,12.48
2022-08-25T03:05:15.643Z,12.07
2022-08-25T03:07:43.191Z,12.90
2022-08-25T03:10:15.639Z,12.07
2022-08-25T03:12:42.807Z,12.10
2022-08-25T03:15:12.941Z,12.35
2022-08-25T03:17:40.916Z,12.98
2022-08-25T03:20:13.337Z,11.73
2022-08-25T03:22:40.681Z,12.25
2022-08-25T03:25:26.659Z,12.32
2022-08-25T03:27:54.026Z,13.30
2022-08-25T03:30:21.529Z,12.10
2022-08-25T03:32:48.825Z,12.60
2022-08-25T03:35:16.004Z,14.13
2022-08-25T03:37:43.129Z,13.35
2022-08-25T03:40:15.220Z,13.60
2022-08-25T03:42:46.972Z,13.10
2022-08-25T03:45:16.691Z,13.50
2022-08-25T03:47:47.085Z,11.75
2022-08-25T03:50:16.476Z,12.23
2022-08-25T03:52:43.726Z,12.63
2022-08-25T03:55:13.822Z,12.40
2022-08-25T03:57:41.145Z,12.93
2022-08-25T04:00:10.542Z,12.30
2022-08-25T04:02:41.441Z,12.02
2022-08-25T04:05:09.378Z,11.38
2022-08-25T04:07:36.608Z,12.52
2022-08-25T04:10:05.987Z,13.27
2022-08-25T04:12:33.437Z,13.10
2022-08-25T04:15:01.391Z,11.88
2022-08-25T04:17:28.697Z,12.85
2022-08-25T04:19:55.985Z,12.07
2022-08-25T04:22:23.299Z,11.55
2022-08-25T04:24:50.492Z,12.20
2022-08-25T04:27:17.627Z,13.10
2022-08-25T04:29:44.865Z,12.63
2022-08-25T04:32:12.135Z,12.73
2022-08-25T04:34:39.325Z,11.43
2022-08-25T04:37:07.951Z,11.35
2022-08-25T04:39:35.329Z,12.90
2022-08-25T04:42:02.816Z,11.98
2022-08-25T04:44:31.098Z,13.07
2022-08-25T04:46:58.574Z,12.02
2022-08-25T04:49:25.818Z,12.60
2022-08-25T04:51:52.933Z,12.70
2022-08-25T04:54:23.379Z,13.50
2022-08-25T04:56:54.651Z,13.25
2022-08-25T04:59:29.526Z,13.73
2022-08-25T05:02:02.798Z,13.20
2022-08-25T05:04:31.398Z,14.10
2022-08-25T05:06:58.856Z,13.73
2022-08-25T05:09:26.749Z,13.13
2022-08-25T05:11:54.953Z,12.65
2022-08-25T05:14:26.480Z,12.18
2022-08-25T05:16:54.830Z,12.68
2022-08-25T05:19:24.434Z,12.85
2022-08-25T05:21:52.185Z,12.40
2022-08-25T05:24:19.601Z,12.48
2022-08-25T05:26:46.982Z,12.95
2022-08-25T05:29:14.615Z,12.05
2022-08-25T05:31:48.307Z,11.95
2022-08-25T05:34:19.113Z,13.25
2022-08-25T05:36:47.216Z,12.50
2022-08-25T05:39:14.890Z,12.63
2022-08-25T05:41:42.047Z,13.50
2022-08-25T05:44:09.290Z,13.07
2022-08-25T05:46:36.530Z,12.63
2022-08-25T05:49:03.851Z,11.85
2022-08-25T05:51:30.975Z,12.55
2022-08-25T05:53:58.139Z,11.25
2022-08-25T05:56:25.268Z,11.98
2022-08-25T05:58:52.546Z,11.95
2022-08-25T06:01:47.097Z,12.10
2022-08-25T06:04:17.950Z,11.85
2022-08-25T06:06:45.264Z,10.52
2022-08-25T06:09:12.547Z,11.05
2022-08-25T06:11:41.111Z,10.25
2022-08-25T06:14:10.132Z,10.45
2022-08-25T06:16:39.380Z,11.18
2022-08-25T06:19:09.211Z,11.40
2022-08-25T06:21:39.314Z,10.52
2022-08-25T06:24:09.974Z,11.40
2022-08-25T06:26:39.241Z,10.45
2022-08-25T06:29:06.332Z,9.63
2022-08-25T06:31:33.575Z,10.25
2022-08-25T06:34:00.846Z,9.77
2022-08-25T06:36:28.498Z,9.40
2022-08-25T06:38:55.553Z,9.95
2022-08-25T06:41:22.786Z,9.32
2022-08-25T06:43:54.158Z,9.05
2022-08-25T06:46:35.652Z,9.25
2022-08-25T06:49:03.938Z,9.27
2022-08-25T06:51:31.156Z,8.48
2022-08-25T06:53:58.202Z,8.45
2022-08-25T06:56:26.596Z,7.97
2022-08-25T06:58:53.840Z,9.13
2022-08-25T07:01:26.468Z,8.27
2022-08-25T07:03:59.982Z,7.68
2022-08-25T07:06:29.191Z,8.60
2022-08-25T07:08:56.306Z,8.30
2022-08-25T07:11:24.399Z,7.72
2022-08-25T07:13:52.096Z,7.57
2022-08-25T07:16:20.858Z,7.80
2022-08-25T07:18:49.022Z,7.15
2022-08-25T07:21:16.870Z,8.35
2022-08-25T07:23:44.751Z,7.68
2022-08-25T07:29:32.748Z,6.95
2022-08-25T07:32:02.035Z,7.60
2022-08-25T07:34:52.619Z,7.22
2022-08-25T07:37:48.964Z,7.47
2022-08-25T07:40:22.725Z,6.90
2022-08-25T07:42:54.199Z,6.82
2022-08-25T07:45:25.688Z,7.78
2022-08-25T07:47:54.059Z,7.10
2022-08-25T07:50:23.320Z,7.35
2022-08-25T07:52:55.078Z,7.22
2022-08-25T07:55:27.405Z,6.45
2022-08-25T07:57:57.080Z,6.97
2022-08-25T08:00:28.071Z,7.45
2022-08-25T08:02:56.175Z,6.38
2022-08-25T08:05:24.929Z,6.05
2022-08-25T08:07:53.942Z,6.53
2022-08-25T08:10:54.018Z,6.63
2022-08-25T08:13:10.461Z,7.07
2022-08-25T08:15:38.152Z,6.22
2022-08-25T08:18:07.181Z,6.00
2022-08-25T08:20:42.845Z,6.65
2022-08-25T08:23:11.513Z,5.75
2022-08-25T08:25:38.702Z,5.53
2022-08-25T08:28:07.449Z,5.93
2022-08-25T08:30:36.811Z,5.13
2022-08-25T08:33:10.223Z,5.10
2022-08-25T08:35:40.561Z,5.40
2022-08-25T08:38:14.911Z,5.32
2022-08-25T08:41:22.949Z,5.78
2022-08-25T08:44:01.741Z,5.03
2022-08-25T08:46:43.683Z,5.50
2022-08-25T08:49:26.836Z,5.18
2022-08-25T08:52:01.326Z,5.28
2022-08-25T08:54:36.367Z,5.22
2022-08-25T08:57:18.331Z,6.05
2022-08-25T09:00:03.189Z,5.70
2022-08-25T09:02:51.429Z,5.97
2022-08-25T09:05:23.007Z,5.40
2022-08-25T09:07:56.289Z,5.78
2022-08-25T09:10:26.911Z,5.75
2022-08-25T09:13:18.816Z,5.88
2022-08-25T09:16:25.234Z,5.90
2022-08-25T09:19:23.341Z,5.63
2022-08-25T09:21:53.777Z,5.63
2022-08-25T09:27:22.595Z,6.78
2022-08-25T09:30:07.495Z,6.10
2022-08-25T09:33:05.101Z,5.78
2022-08-25T09:35:36.102Z,6.15
2022-08-25T09:38:07.854Z,6.18
2022-08-25T09:40:42.566Z,6.95
2022-08-25T09:43:34.369Z,6.38
2022-08-25T09:46:03.439Z,6.10
2022-08-25T09:48:40.983Z,6.03
2022-08-25T09:51:19.817Z,5.90
2022-08-25T09:54:10.728Z,5.45
2022-08-25T09:56:50.504Z,6.40
2022-08-25T09:59:34.267Z,5.63
2022-08-25T10:02:29.215Z,6.05
2022-08-25T10:04:56.774Z,6.50
2022-08-25T10:07:39.891Z,6.15
2022-08-25T10:10:18.621Z,5.80
2022-08-25T10:12:51.232Z,5.53
2022-08-25T10:15:30.317Z,6.60
2022-08-25T10:18:25.952Z,5.72
2022-08-25T10:21:17.637Z,5.57
2022-08-25T10:23:50.172Z,6.18
2022-08-25T10:26:34.826Z,5.57
2022-08-25T10:29:23.967Z,5.47
2022-08-25T10:31:59.656Z,5.30
2022-08-25T10:34:34.898Z,5.43
2022-08-25T10:37:11.092Z,6.05
2022-08-25T10:39:46.255Z,5.80
2022-08-25T10:42:32.223Z,5.47
2022-08-25T10:45:40.696Z,5.60
2022-08-25T10:48:32.278Z,5.38
2022-08-25T10:51:14.612Z,5.25
2022-08-25T10:53:56.930Z,5.35
2022-08-25T10:56:29.648Z,5.22
2022-08-25T10:59:22.573Z,4.63
2022-08-25T11:02:08.568Z,4.97
2022-08-25T11:04:42.952Z,4.78
2022-08-25T11:07:38.378Z,4.30
2022-08-25T11:10:10.020Z,5.13
2022-08-25T11:13:00.074Z,4.43
2022-08-25T11:16:00.211Z,5.10
2022-08-25T11:18:33.198Z,4.40
2022-08-25T11:21:20.581Z,5.10
2022-08-25T11:24:18.658Z,4.45
2022-08-25T11:26:54.857Z,4.70
2022-08-25T11:29:24.818Z,4.63
2022-08-25T11:31:54.087Z,4.72
2022-08-25T11:34:22.716Z,4.70
2022-08-25T11:37:11.142Z,4.68
2022-08-25T11:40:03.991Z,4.35
2022-08-25T11:42:59.872Z,4.45
2022-08-25T11:45:54.398Z,4.43
2022-08-25T11:48:24.626Z,4.18
2022-08-25T11:51:06.948Z,4.00
2022-08-25T11:53:43.549Z,4.60
2022-08-25T11:56:32.673Z,4.88
2022-08-25T11:59:02.059Z,4.63
2022-08-25T12:01:43.335Z,4.55
2022-08-25T12:04:35.654Z,4.40
2022-08-25T12:07:17.906Z,4.50
2022-08-25T12:09:51.423Z,4.60
2022-08-25T12:12:56.905Z,5.20
2022-08-25T12:15:26.646Z,4.90
2022-08-25T12:18:15.285Z,5.15
2022-08-25T12:20:57.338Z,6.15
2022-08-25T12:24:02.600Z,5.40
2022-08-25T12:26:48.198Z,4.88
2022-08-25T12:29:27.615Z,4.35
2022-08-25T12:34:47.233Z,4.45
2022-08-25T12:37:18.067Z,4.63
2022-08-25T12:39:51.390Z,4.40
2022-08-25T12:42:43.546Z,4.43
2022-08-25T12:45:39.210Z,4.45
2022-08-25T12:48:28.088Z,5.72
2022-08-25T12:51:01.250Z,4.28
2022-08-25T12:53:44.250Z,3.55
2022-08-25T12:56:39.160Z,4.63
2022-08-25T12:59:48.711Z,3.70
2022-08-25T13:02:34.303Z,5.10
2022-08-25T13:05:16.455Z,4.30
2022-08-25T13:08:15.301Z,5.13
2022-08-25T13:10:51.139Z,4.85
2022-08-25T13:13:57.871Z,4.88
2022-08-25T13:16:29.727Z,4.05
2022-08-25T13:19:01.784Z,5.13
2022-08-25T13:21:30.965Z,5.00
2022-08-25T13:24:05.034Z,4.97
2022-08-25T13:26:37.707Z,4.40
2022-08-25T13:29:24.648Z,4.70
2022-08-25T13:32:09.457Z,4.75
2022-08-25T13:34:42.552Z,4.55
2022-08-25T13:37:29.716Z,5.10
2022-08-25T13:40:24.767Z,4.55
2022-08-25T13:43:01.063Z,4.75
2022-08-25T13:45:32.294Z,4.68
2022-08-25T13:47:59.777Z,4.88
2022-08-25T13:50:27.180Z,4.68
2022-08-25T13:53:02.091Z,4.63
2022-08-25T13:55:38.128Z,4.60
2022-08-25T13:58:39.487Z,5.10
2022-08-25T14:01:48.205Z,4.55
2022-08-25T14:04:21.067Z,4.05
2022-08-25T14:06:48.876Z,4.78
2022-08-25T14:09:28.142Z,4.63
2022-08-25T14:11:58.778Z,3.97
2022-08-25T14:14:25.910Z,4.53
2022-08-25T14:17:08.212Z,4.50
2022-08-25T14:19:49.239Z,4.47
2022-08-25T14:22:16.441Z,5.20
2022-08-25T14:24:44.109Z,4.90
2022-08-25T14:27:11.995Z,4.43
2022-08-25T14:29:41.179Z,4.38
2022-08-25T14:32:10.066Z,4.72
2022-08-25T14:34:39.654Z,4.93
2022-08-25T14:37:18.159Z,5.13
2022-08-25T14:39:46.050Z,4.22
2022-08-25T14:42:13.948Z,4.07
2022-08-25T14:44:41.364Z,4.50
2022-08-25T14:47:09.471Z,4.45
2022-08-25T14:49:40.949Z,5.00
2022-08-25T14:52:22.726Z,4.43
2022-08-25T14:54:50.867Z,3.97
2022-08-25T14:57:18.572Z,4.00
2022-08-25T14:59:46.443Z,4.30
2022-08-25T15:02:19.893Z,4.85
2022-08-25T15:05:00.673Z,4.82
2022-08-25T15:07:50.578Z,4.47
2022-08-25T15:10:17.916Z,4.47
2022-08-25T15:12:47.890Z,4.38
2022-08-25T15:15:15.459Z,3.70
2022-08-25T15:17:45.559Z,4.07
2022-08-25T15:22:42.565Z,3.42
2022-08-25T15:25:11.412Z,3.53
2022-08-25T15:27:38.588Z,4.38
2022-08-25T15:30:07.032Z,4.43
2022-08-25T15:32:34.346Z,4.35
2022-08-25T15:35:01.506Z,4.00
2022-08-25T15:37:29.171Z,4.10
2022-08-25T15:39:56.891Z,3.78
2022-08-25T15:42:25.698Z,3.85
2022-08-25T15:44:54.116Z,3.70
2022-08-25T15:47:22.577Z,3.60
2022-08-25T15:49:49.904Z,3.10
2022-08-25T15:52:17.437Z,3.88
2022-08-25T15:54:45.208Z,4.13
2022-08-25T15:57:16.279Z,4.22
2022-08-25T15:59:53.241Z,3.67
2022-08-25T16:02:21.809Z,4.25
2022-08-25T16:04:51.019Z,4.00
2022-08-25T16:07:18.421Z,4.40
2022-08-25T16:09:47.035Z,4.05
2022-08-25T16:12:14.544Z,3.95
2022-08-25T16:14:41.772Z,4.63
2022-08-25T16:17:09.065Z,4.05
2022-08-25T16:19:38.115Z,4.32
2022-08-25T16:22:08.847Z,4.15
2022-08-25T16:24:44.528Z,4.13
2022-08-25T16:27:13.699Z,4.80
2022-08-25T16:29:42.985Z,4.35
2022-08-25T16:32:13.389Z,3.95
2022-08-25T16:34:41.830Z,4.10
2022-08-25T16:37:09.238Z,4.30
2022-08-25T16:39:37.221Z,4.28
2022-08-25T16:42:07.286Z,4.20
2022-08-25T16:44:34.692Z,4.18
2022-08-25T16:47:02.994Z,4.32
2022-08-25T16:49:31.300Z,4.78
2022-08-25T16:51:58.565Z,5.88
2022-08-25T16:54:45.652Z,4.15
2022-08-25T16:57:13.328Z,4.72
2022-08-25T16:59:43.904Z,4.30
2022-08-25T17:02:11.360Z,4.53
2022-08-25T17:04:39.036Z,4.30
2022-08-25T17:07:07.894Z,4.75
2022-08-25T17:09:35.260Z,4.10
2022-08-25T17:12:02.665Z,4.38
2022-08-25T17:14:29.809Z,3.92
2022-08-25T17:16:58.050Z,5.07
2022-08-25T17:19:26.065Z,4.80
2022-08-25T17:21:54.919Z,5.47
2022-08-25T17:24:22.551Z,4.47
2022-08-25T17:26:57.086Z,4.53
2022-08-25T17:29:24.816Z,5.15
2022-08-25T17:31:52.350Z,5.25
2022-08-25T17:34:23.080Z,4.65
2022-08-25T17:36:50.973Z,4.68
2022-08-25T17:39:19.903Z,4.70
2022-08-25T17:41:50.942Z,5.00
2022-08-25T17:44:19.514Z,5.72
2022-08-25T17:46:48.068Z,4.47
2022-08-25T17:49:17.313Z,4.70
2022-08-25T17:51:45.507Z,4.50
2022-08-25T17:54:13.066Z,4.70
2022-08-25T17:56:40.976Z,4.70
2022-08-25T17:59:08.708Z,4.55
2022-08-25T18:01:40.184Z,4.78
2022-08-25T18:04:17.351Z,4.55
2022-08-25T18:06:47.763Z,5.45
2022-08-25T18:09:16.315Z,4.78
2022-08-25T18:11:45.640Z,5.35
2022-08-25T18:14:16.864Z,5.25
2022-08-25T18:16:44.336Z,5.13
2022-08-25T18:19:14.394Z,4.88
2022-08-25T18:24:11.987Z,4.90
2022-08-25T18:26:40.800Z,5.55
2022-08-25T18:29:12.518Z,5.93
2022-08-25T18:31:42.121Z,5.05
2022-08-25T18:34:11.432Z,5.68
2022-08-25T18:36:39.528Z,5.60
2022-08-25T18:39:26.463Z,6.13
2022-08-25T18:41:53.898Z,5.95
2022-08-25T18:44:21.307Z,5.63
2022-08-25T18:46:48.816Z,6.05
2022-08-25T18:49:17.591Z,6.25
2022-08-25T18:51:46.537Z,5.50
2022-08-25T18:54:22.753Z,5.63
2022-08-25T18:56:54.834Z,5.45
2022-08-25T18:59:23.796Z,6.45
2022-08-25T19:01:54.293Z,5.65
2022-08-25T19:07:00.203Z,5.70
2022-08-25T19:09:27.390Z,5.90
2022-08-25T19:11:55.919Z,5.88
2022-08-25T19:14:23.540Z,5.90
2022-08-25T19:16:54.585Z,5.97
2022-08-25T19:19:23.195Z,4.75
2022-08-25T19:21:50.851Z,5.55
2022-08-25T19:24:18.655Z,5.88
2022-08-25T19:26:46.558Z,5.43
2022-08-25T19:29:17.511Z,5.60
2022-08-25T19:31:47.835Z,6.05
2022-08-25T19:34:19.576Z,6.28
2022-08-25T19:36:48.067Z,5.90
2022-08-25T19:39:16.435Z,5.80
2022-08-25T19:41:44.755Z,5.97
2022-08-25T19:44:12.852Z,5.68
2022-08-25T19:46:42.910Z,5.65
2022-08-25T19:51:43.878Z,5.50
2022-08-25T19:54:15.739Z,6.30
2022-08-25T19:56:54.442Z,5.72
2022-08-25T19:59:34.221Z,5.75
2022-08-25T20:02:09.955Z,6.20
2022-08-25T20:04:38.050Z,5.93
2022-08-25T20:07:07.098Z,6.43
2022-08-25T20:09:40.770Z,5.75
2022-08-25T20:12:11.423Z,6.13
2022-08-25T20:14:39.609Z,7.00
2022-08-25T20:17:14.445Z,6.20
2022-08-25T20:19:51.096Z,6.40
2022-08-25T20:22:19.949Z,6.35
2022-08-25T20:24:49.636Z,6.18
2022-08-25T20:27:35.855Z,6.43
2022-08-25T20:30:08.438Z,7.50
2022-08-25T20:32:36.981Z,6.32
2022-08-25T20:35:08.873Z,7.15
2022-08-25T20:37:36.818Z,7.43
2022-08-25T20:40:05.826Z,6.50
2022-08-25T20:42:33.140Z,7.07
2022-08-25T20:45:00.979Z,7.07
2022-08-25T20:47:28.417Z,6.80
2022-08-25T20:49:55.689Z,7.53
2022-08-25T20:52:23.138Z,7.53
2022-08-25T20:54:51.832Z,8.30
2022-08-25T20:57:24.499Z,7.30
2022-08-25T20:59:53.585Z,7.45
2022-08-25T21:02:21.567Z,8.93
2022-08-25T21:04:49.123Z,7.95
2022-08-25T21:07:18.847Z,8.40
2022-08-25T21:09:46.517Z,8.48
2022-08-25T21:12:15.028Z,9.68
2022-08-25T21:14:42.678Z,8.57
2022-08-25T21:17:14.587Z,8.73
2022-08-25T21:19:42.573Z,9.38
2022-08-25T21:22:11.066Z,9.45
2022-08-25T21:24:38.709Z,9.43
2022-08-25T21:27:06.498Z,8.75
2022-08-25T21:29:33.997Z,8.45
2022-08-25T21:32:02.139Z,8.80
2022-08-25T21:34:29.696Z,9.00
2022-08-25T21:37:00.101Z,9.52
2022-08-25T21:39:29.766Z,8.32
2022-08-25T21:42:00.420Z,9.43
2022-08-25T21:44:28.834Z,10.00
2022-08-25T21:46:56.770Z,10.07
2022-08-25T21:49:25.263Z,9.93
2022-08-25T21:52:00.983Z,9.50
2022-08-25T21:54:29.857Z,9.82
2022-08-25T21:57:00.487Z,10.43
2022-08-25T21:59:30.626Z,10.20
2022-08-25T22:02:01.122Z,10.65
2022-08-25T22:04:29.719Z,10.45
2022-08-25T22:06:58.395Z,10.77
2022-08-25T22:09:28.183Z,10.25
2022-08-25T22:11:55.898Z,10.75
2022-08-25T22:14:24.505Z,11.77
2022-08-25T22:16:54.605Z,10.55
2022-08-25T22:19:22.828Z,10.15
2022-08-25T22:21:51.699Z,10.38
2022-08-25T22:24:19.652Z,11.05
2022-08-25T22:26:48.599Z,10.20
2022-08-25T22:29:24.774Z,9.85
2022-08-25T22:31:59.975Z,10.63
2022-08-25T22:34:32.862Z,10.25
2022-08-25T22:37:04.576Z,11.30
2022-08-25T22:39:34.358Z,10.57
2022-08-25T22:42:03.025Z,10.65
2022-08-25T22:44:30.427Z,9.93
2022-08-25T22:46:57.584Z,11.60
2022-08-25T22:49:28.983Z,10.00
2022-08-25T22:51:56.327Z,10.98
2022-08-25T22:54:25.523Z,11.40
2022-08-25T22:56:53.682Z,11.32
2022-08-25T22:59:22.059Z,12.63
2022-08-25T23:01:52.694Z,11.60
2022-08-25T23:04:22.256Z,11.02
2022-08-25T23:06:50.090Z,10.50
2022-08-25T23:09:17.263Z,10.55
2022-08-25T23:11:44.618Z,12.15
2022-08-25T23:14:13.071Z,11.35
2022-08-25T23:16:42.136Z,10.98
2022-08-25T23:19:13.735Z,10.93
2022-08-25T23:22:01.317Z,11.68
2022-08-25T23:24:30.298Z,10.88
2022-08-25T23:26:59.808Z,10.47
2022-08-25T23:29:28.965Z,10.80
2022-08-25T23:31:56.798Z,11.45
2022-08-25T23:34:25.536Z,10.80
2022-08-25T23:36:53.185Z,11.25
2022-08-25T23:39:21.775Z,9.65
2022-08-25T23:41:50.574Z,11.60
2022-08-25T23:44:19.217Z,12.18
2022-08-25T23:46:47.907Z,11.10
2022-08-25T23:49:18.377Z,10.95
2022-08-25T23:51:51.841Z,12.38
2022-08-25T23:54:20.935Z,12.57
2022-08-25T23:56:52.205Z,12.95
2022-08-25T23:59:24.367Z,12.80
